sensor_id;sensor_type;location;lat;lon;timestamp;P1;durP1;ratioP1;P2;durP2;ratioP2
27305;SDS011;14792;50.886;6.468;2023-08-17T00:02:30;26.12;;;22.07;;
27305;SDS011;14792;50.886;6.468;2023-08-17T00:05:31;32.45;;;21.37;;
27305;SDS011;14792;50.886;6.468;2023-08-17T00:08:33;25.57;;;21.60;;
27305;SDS011;14792;50.886;6.468;2023-08-17T00:11:34;24.82;;;20.92;;
27305;SDS011;14792;50.886;6.468;2023-08-17T00:14:36;24.52;;;21.80;;
27305;SDS011;14792;50.886;6.468;2023-08-17T00:17:38;33.18;;;22.90;;
27305;SDS011;14792;50.886;6.468;2023-08-17T00:20:39;35.83;;;24.37;;
27305;SDS011;14792;50.886;6.468;2023-08-17T00:23:41;30.45;;;24.65;;
27305;SDS011;14792;50.886;6.468;2023-08-17T00:26:42;29.40;;;24.00;;
27305;SDS011;14792;50.886;6.468;2023-08-17T00:29:44;29.65;;;24.02;;
27305;SDS011;14792;50.886;6.468;2023-08-17T00:32:45;27.58;;;23.05;;
27305;SDS011;14792;50.886;6.468;2023-08-17T00:35:47;33.65;;;23.73;;
27305;SDS011;14792;50.886;6.468;2023-08-17T00:38:49;27.37;;;23.15;;
27305;SDS011;14792;50.886;6.468;2023-08-17T00:41:50;31.27;;;24.15;;
27305;SDS011;14792;50.886;6.468;2023-08-17T00:44:52;33.13;;;23.85;;
27305;SDS011;14792;50.886;6.468;2023-08-17T00:47:57;27.00;;;24.00;;
27305;SDS011;14792;50.886;6.468;2023-08-17T00:50:58;30.35;;;22.55;;
27305;SDS011;14792;50.886;6.468;2023-08-17T00:54:00;31.33;;;24.15;;
27305;SDS011;14792;50.886;6.468;2023-08-17T00:57:01;29.48;;;23.32;;
27305;SDS011;14792;50.886;6.468;2023-08-17T01:00:03;27.45;;;23.87;;
27305;SDS011;14792;50.886;6.468;2023-08-17T01:03:04;27.42;;;21.93;;
27305;SDS011;14792;50.886;6.468;2023-08-17T01:06:06;28.05;;;21.42;;
27305;SDS011;14792;50.886;6.468;2023-08-17T01:09:07;29.07;;;21.77;;
27305;SDS011;14792;50.886;6.468;2023-08-17T01:12:26;29.52;;;22.52;;
27305;SDS011;14792;50.886;6.468;2023-08-17T01:15:36;30.75;;;20.57;;
27305;SDS011;14792;50.886;6.468;2023-08-17T01:18:34;28.65;;;21.82;;
27305;SDS011;14792;50.886;6.468;2023-08-17T01:21:37;31.62;;;21.75;;
27305;SDS011;14792;50.886;6.468;2023-08-17T01:24:37;27.10;;;20.82;;
27305;SDS011;14792;50.886;6.468;2023-08-17T01:27:43;26.12;;;19.90;;
27305;SDS011;14792;50.886;6.468;2023-08-17T01:30:44;21.90;;;17.98;;
27305;SDS011;14792;50.886;6.468;2023-08-17T01:33:48;20.75;;;18.50;;
27305;SDS011;14792;50.886;6.468;2023-08-17T01:36:52;21.62;;;18.73;;
27305;SDS011;14792;50.886;6.468;2023-08-17T01:39:51;20.20;;;17.25;;
27305;SDS011;14792;50.886;6.468;2023-08-17T01:42:52;20.25;;;17.73;;
27305;SDS011;14792;50.886;6.468;2023-08-17T01:45:53;21.95;;;19.12;;
27305;SDS011;14792;50.886;6.468;2023-08-17T01:48:55;22.30;;;18.52;;
27305;SDS011;14792;50.886;6.468;2023-08-17T01:51:56;21.87;;;18.10;;
27305;SDS011;14792;50.886;6.468;2023-08-17T01:54:58;24.52;;;18.92;;
27305;SDS011;14792;50.886;6.468;2023-08-17T01:58:00;21.17;;;18.65;;
27305;SDS011;14792;50.886;6.468;2023-08-17T02:01:01;23.35;;;18.17;;
27305;SDS011;14792;50.886;6.468;2023-08-17T02:04:03;22.62;;;20.05;;
27305;SDS011;14792;50.886;6.468;2023-08-17T02:07:04;24.37;;;21.42;;
27305;SDS011;14792;50.886;6.468;2023-08-17T02:10:06;22.52;;;20.12;;
27305;SDS011;14792;50.886;6.468;2023-08-17T02:13:08;28.25;;;21.60;;
27305;SDS011;14792;50.886;6.468;2023-08-17T02:16:09;25.50;;;22.25;;
27305;SDS011;14792;50.886;6.468;2023-08-17T02:19:11;25.88;;;23.05;;
27305;SDS011;14792;50.886;6.468;2023-08-17T02:22:13;24.18;;;21.87;;
27305;SDS011;14792;50.886;6.468;2023-08-17T02:25:14;26.07;;;23.27;;
27305;SDS011;14792;50.886;6.468;2023-08-17T02:28:16;24.60;;;22.20;;
27305;SDS011;14792;50.886;6.468;2023-08-17T02:31:17;27.22;;;24.32;;
27305;SDS011;14792;50.886;6.468;2023-08-17T02:34:19;28.32;;;23.62;;
27305;SDS011;14792;50.886;6.468;2023-08-17T02:37:20;24.98;;;22.37;;
27305;SDS011;14792;50.886;6.468;2023-08-17T02:40:22;25.10;;;22.50;;
27305;SDS011;14792;50.886;6.468;2023-08-17T02:43:24;28.20;;;22.73;;
27305;SDS011;14792;50.886;6.468;2023-08-17T02:46:25;31.05;;;24.32;;
27305;SDS011;14792;50.886;6.468;2023-08-17T02:49:27;28.77;;;23.75;;
27305;SDS011;14792;50.886;6.468;2023-08-17T02:52:28;25.68;;;22.98;;
27305;SDS011;14792;50.886;6.468;2023-08-17T02:55:30;27.77;;;23.73;;
27305;SDS011;14792;50.886;6.468;2023-08-17T02:58:32;27.42;;;24.63;;
27305;SDS011;14792;50.886;6.468;2023-08-17T03:01:33;27.35;;;22.37;;
27305;SDS011;14792;50.886;6.468;2023-08-17T03:04:35;26.93;;;24.23;;
27305;SDS011;14792;50.886;6.468;2023-08-17T03:07:36;32.08;;;23.67;;
27305;SDS011;14792;50.886;6.468;2023-08-17T03:10:38;25.30;;;22.60;;
27305;SDS011;14792;50.886;6.468;2023-08-17T03:13:40;29.35;;;23.12;;
27305;SDS011;14792;50.886;6.468;2023-08-17T03:16:41;26.33;;;23.50;;
27305;SDS011;14792;50.886;6.468;2023-08-17T03:19:43;31.37;;;24.05;;
27305;SDS011;14792;50.886;6.468;2023-08-17T03:22:44;28.12;;;24.92;;
27305;SDS011;14792;50.886;6.468;2023-08-17T03:25:46;30.88;;;26.42;;
27305;SDS011;14792;50.886;6.468;2023-08-17T03:28:47;31.02;;;27.48;;
27305;SDS011;14792;50.886;6.468;2023-08-17T03:31:49;33.40;;;28.10;;
27305;SDS011;14792;50.886;6.468;2023-08-17T03:34:51;31.45;;;27.95;;
27305;SDS011;14792;50.886;6.468;2023-08-17T03:37:52;32.53;;;29.00;;
27305;SDS011;14792;50.886;6.468;2023-08-17T03:40:54;36.88;;;29.07;;
27305;SDS011;14792;50.886;6.468;2023-08-17T03:43:55;34.48;;;30.62;;
27305;SDS011;14792;50.886;6.468;2023-08-17T03:46:57;36.45;;;30.35;;
27305;SDS011;14792;50.886;6.468;2023-08-17T03:49:59;42.48;;;31.57;;
27305;SDS011;14792;50.886;6.468;2023-08-17T03:53:00;41.25;;;31.20;;
27305;SDS011;14792;50.886;6.468;2023-08-17T03:56:02;34.90;;;30.97;;
27305;SDS011;14792;50.886;6.468;2023-08-17T03:59:03;38.53;;;30.30;;
27305;SDS011;14792;50.886;6.468;2023-08-17T04:02:05;40.28;;;31.05;;
27305;SDS011;14792;50.886;6.468;2023-08-17T04:05:07;38.00;;;30.55;;
27305;SDS011;14792;50.886;6.468;2023-08-17T04:08:08;34.25;;;29.65;;
27305;SDS011;14792;50.886;6.468;2023-08-17T04:11:10;36.42;;;28.87;;
27305;SDS011;14792;50.886;6.468;2023-08-17T04:14:12;33.50;;;28.57;;
27305;SDS011;14792;50.886;6.468;2023-08-17T04:17:13;35.23;;;29.82;;
27305;SDS011;14792;50.886;6.468;2023-08-17T04:20:15;35.30;;;29.32;;
27305;SDS011;14792;50.886;6.468;2023-08-17T04:23:16;37.55;;;29.63;;
27305;SDS011;14792;50.886;6.468;2023-08-17T04:26:18;33.98;;;30.25;;
27305;SDS011;14792;50.886;6.468;2023-08-17T04:29:20;35.65;;;28.32;;
27305;SDS011;14792;50.886;6.468;2023-08-17T04:32:21;34.10;;;28.62;;
27305;SDS011;14792;50.886;6.468;2023-08-17T04:35:23;34.83;;;28.05;;
27305;SDS011;14792;50.886;6.468;2023-08-17T04:38:25;31.75;;;26.52;;
27305;SDS011;14792;50.886;6.468;2023-08-17T04:41:26;35.70;;;27.70;;
27305;SDS011;14792;50.886;6.468;2023-08-17T04:44:28;40.58;;;28.35;;
27305;SDS011;14792;50.886;6.468;2023-08-17T04:47:29;32.23;;;26.70;;
27305;SDS011;14792;50.886;6.468;2023-08-17T04:50:31;38.73;;;26.73;;
27305;SDS011;14792;50.886;6.468;2023-08-17T04:53:32;34.35;;;25.75;;
27305;SDS011;14792;50.886;6.468;2023-08-17T04:56:34;39.03;;;25.05;;
27305;SDS011;14792;50.886;6.468;2023-08-17T04:59:36;34.60;;;25.10;;
27305;SDS011;14792;50.886;6.468;2023-08-17T05:02:37;36.30;;;25.95;;
27305;SDS011;14792;50.886;6.468;2023-08-17T05:05:39;31.10;;;24.25;;
27305;SDS011;14792;50.886;6.468;2023-08-17T05:08:40;39.55;;;25.52;;
27305;SDS011;14792;50.886;6.468;2023-08-17T05:11:42;44.13;;;26.48;;
27305;SDS011;14792;50.886;6.468;2023-08-17T05:14:44;38.10;;;26.15;;
27305;SDS011;14792;50.886;6.468;2023-08-17T05:17:45;39.18;;;26.60;;
27305;SDS011;14792;50.886;6.468;2023-08-17T05:20:47;34.70;;;25.17;;
27305;SDS011;14792;50.886;6.468;2023-08-17T05:23:48;41.18;;;26.05;;
27305;SDS011;14792;50.886;6.468;2023-08-17T05:26:50;43.48;;;28.02;;
27305;SDS011;14792;50.886;6.468;2023-08-17T05:29:52;45.40;;;27.82;;
27305;SDS011;14792;50.886;6.468;2023-08-17T05:32:53;41.28;;;26.65;;
27305;SDS011;14792;50.886;6.468;2023-08-17T05:35:55;39.73;;;27.42;;
27305;SDS011;14792;50.886;6.468;2023-08-17T05:38:56;39.25;;;28.62;;
27305;SDS011;14792;50.886;6.468;2023-08-17T05:41:58;42.80;;;28.95;;
27305;SDS011;14792;50.886;6.468;2023-08-17T05:45:00;38.92;;;27.85;;
27305;SDS011;14792;50.886;6.468;2023-08-17T05:48:01;41.73;;;28.70;;
27305;SDS011;14792;50.886;6.468;2023-08-17T05:51:03;40.65;;;28.20;;
27305;SDS011;14792;50.886;6.468;2023-08-17T05:54:04;40.43;;;29.07;;
27305;SDS011;14792;50.886;6.468;2023-08-17T05:57:06;40.92;;;28.35;;
27305;SDS011;14792;50.886;6.468;2023-08-17T06:00:08;40.08;;;29.00;;
27305;SDS011;14792;50.886;6.468;2023-08-17T06:03:09;43.05;;;29.07;;
27305;SDS011;14792;50.886;6.468;2023-08-17T06:06:11;45.85;;;29.15;;
27305;SDS011;14792;50.886;6.468;2023-08-17T06:09:12;45.52;;;29.12;;
27305;SDS011;14792;50.886;6.468;2023-08-17T06:12:14;46.25;;;29.37;;
27305;SDS011;14792;50.886;6.468;2023-08-17T06:15:16;55.03;;;29.72;;
27305;SDS011;14792;50.886;6.468;2023-08-17T06:18:17;48.85;;;29.92;;
27305;SDS011;14792;50.886;6.468;2023-08-17T06:21:19;48.30;;;29.63;;
27305;SDS011;14792;50.886;6.468;2023-08-17T06:24:20;44.27;;;29.87;;
27305;SDS011;14792;50.886;6.468;2023-08-17T06:27:22;52.78;;;30.62;;
27305;SDS011;14792;50.886;6.468;2023-08-17T06:30:24;45.50;;;31.25;;
27305;SDS011;14792;50.886;6.468;2023-08-17T06:33:25;41.60;;;28.77;;
27305;SDS011;14792;50.886;6.468;2023-08-17T06:36:30;47.62;;;31.00;;
27305;SDS011;14792;50.886;6.468;2023-08-17T06:39:28;48.63;;;30.10;;
27305;SDS011;14792;50.886;6.468;2023-08-17T06:42:30;45.52;;;28.67;;
27305;SDS011;14792;50.886;6.468;2023-08-17T06:45:32;45.10;;;28.57;;
27305;SDS011;14792;50.886;6.468;2023-08-17T06:48:33;42.50;;;29.52;;
27305;SDS011;14792;50.886;6.468;2023-08-17T06:51:35;42.55;;;28.35;;
27305;SDS011;14792;50.886;6.468;2023-08-17T06:54:36;45.67;;;27.62;;
27305;SDS011;14792;50.886;6.468;2023-08-17T06:57:38;40.03;;;28.35;;
27305;SDS011;14792;50.886;6.468;2023-08-17T07:03:41;40.85;;;26.70;;
27305;SDS011;14792;50.886;6.468;2023-08-17T07:06:43;50.95;;;28.35;;
27305;SDS011;14792;50.886;6.468;2023-08-17T07:09:44;42.05;;;26.02;;
27305;SDS011;14792;50.886;6.468;2023-08-17T07:12:46;44.95;;;26.70;;
27305;SDS011;14792;50.886;6.468;2023-08-17T07:15:47;47.17;;;28.57;;
27305;SDS011;14792;50.886;6.468;2023-08-17T07:18:49;42.13;;;27.40;;
27305;SDS011;14792;50.886;6.468;2023-08-17T07:21:51;36.60;;;26.90;;
27305;SDS011;14792;50.886;6.468;2023-08-17T07:24:52;44.08;;;28.55;;
27305;SDS011;14792;50.886;6.468;2023-08-17T07:27:54;39.50;;;26.55;;
27305;SDS011;14792;50.886;6.468;2023-08-17T07:30:55;39.18;;;27.00;;
27305;SDS011;14792;50.886;6.468;2023-08-17T07:33:57;38.73;;;26.50;;
27305;SDS011;14792;50.886;6.468;2023-08-17T07:36:59;36.15;;;25.15;;
27305;SDS011;14792;50.886;6.468;2023-08-17T07:40:00;44.10;;;27.50;;
27305;SDS011;14792;50.886;6.468;2023-08-17T07:43:02;39.18;;;27.45;;
27305;SDS011;14792;50.886;6.468;2023-08-17T07:46:03;39.27;;;25.90;;
27305;SDS011;14792;50.886;6.468;2023-08-17T07:49:05;40.45;;;27.62;;
27305;SDS011;14792;50.886;6.468;2023-08-17T07:52:07;39.45;;;26.80;;
27305;SDS011;14792;50.886;6.468;2023-08-17T07:55:08;46.60;;;27.02;;
27305;SDS011;14792;50.886;6.468;2023-08-17T07:58:10;40.00;;;26.50;;
27305;SDS011;14792;50.886;6.468;2023-08-17T08:01:11;38.25;;;25.37;;
27305;SDS011;14792;50.886;6.468;2023-08-17T08:04:13;42.85;;;27.50;;
27305;SDS011;14792;50.886;6.468;2023-08-17T08:07:15;48.05;;;27.48;;
27305;SDS011;14792;50.886;6.468;2023-08-17T08:10:16;43.70;;;28.05;;
27305;SDS011;14792;50.886;6.468;2023-08-17T08:13:18;45.83;;;27.67;;
27305;SDS011;14792;50.886;6.468;2023-08-17T08:16:19;41.13;;;27.70;;
27305;SDS011;14792;50.886;6.468;2023-08-17T08:19:21;45.40;;;29.87;;
27305;SDS011;14792;50.886;6.468;2023-08-17T08:22:22;46.53;;;30.70;;
27305;SDS011;14792;50.886;6.468;2023-08-17T08:25:24;48.25;;;31.68;;
27305;SDS011;14792;50.886;6.468;2023-08-17T08:28:26;43.68;;;29.07;;
27305;SDS011;14792;50.886;6.468;2023-08-17T08:31:27;43.40;;;29.07;;
27305;SDS011;14792;50.886;6.468;2023-08-17T08:34:29;43.40;;;31.10;;
27305;SDS011;14792;50.886;6.468;2023-08-17T08:37:30;44.55;;;29.67;;
27305;SDS011;14792;50.886;6.468;2023-08-17T08:40:32;39.60;;;29.48;;
27305;SDS011;14792;50.886;6.468;2023-08-17T08:43:34;35.70;;;28.10;;
27305;SDS011;14792;50.886;6.468;2023-08-17T08:46:35;43.52;;;28.15;;
27305;SDS011;14792;50.886;6.468;2023-08-17T08:49:40;42.40;;;27.40;;
27305;SDS011;14792;50.886;6.468;2023-08-17T08:52:42;39.80;;;27.60;;
27305;SDS011;14792;50.886;6.468;2023-08-17T08:55:55;40.50;;;29.18;;
27305;SDS011;14792;50.886;6.468;2023-08-17T08:58:56;41.18;;;28.10;;
27305;SDS011;14792;50.886;6.468;2023-08-17T09:01:58;45.20;;;31.70;;
27305;SDS011;14792;50.886;6.468;2023-08-17T09:04:59;48.00;;;32.30;;
27305;SDS011;14792;50.886;6.468;2023-08-17T09:08:01;51.08;;;33.42;;
27305;SDS011;14792;50.886;6.468;2023-08-17T09:11:02;47.95;;;32.25;;
27305;SDS011;14792;50.886;6.468;2023-08-17T09:14:05;47.95;;;32.08;;
27305;SDS011;14792;50.886;6.468;2023-08-17T09:17:06;44.25;;;31.42;;
27305;SDS011;14792;50.886;6.468;2023-08-17T09:20:08;47.03;;;33.92;;
27305;SDS011;14792;50.886;6.468;2023-08-17T09:23:09;48.98;;;32.65;;
27305;SDS011;14792;50.886;6.468;2023-08-17T09:26:10;48.85;;;30.90;;
27305;SDS011;14792;50.886;6.468;2023-08-17T09:29:18;44.65;;;30.95;;
27305;SDS011;14792;50.886;6.468;2023-08-17T09:32:19;47.23;;;30.23;;
27305;SDS011;14792;50.886;6.468;2023-08-17T09:35:21;48.28;;;31.80;;
27305;SDS011;14792;50.886;6.468;2023-08-17T09:38:23;46.58;;;29.82;;
27305;SDS011;14792;50.886;6.468;2023-08-17T09:41:27;48.05;;;29.85;;
27305;SDS011;14792;50.886;6.468;2023-08-17T09:44:29;41.40;;;26.90;;
27305;SDS011;14792;50.886;6.468;2023-08-17T09:47:30;42.17;;;29.80;;
27305;SDS011;14792;50.886;6.468;2023-08-17T09:50:32;40.50;;;29.12;;
27305;SDS011;14792;50.886;6.468;2023-08-17T09:53:36;44.63;;;30.45;;
27305;SDS011;14792;50.886;6.468;2023-08-17T09:56:38;50.00;;;29.37;;
27305;SDS011;14792;50.886;6.468;2023-08-17T10:02:41;45.52;;;30.12;;
27305;SDS011;14792;50.886;6.468;2023-08-17T10:05:43;40.50;;;27.87;;
27305;SDS011;14792;50.886;6.468;2023-08-17T10:08:47;43.58;;;28.12;;
27305;SDS011;14792;50.886;6.468;2023-08-17T10:11:46;40.38;;;28.38;;
27305;SDS011;14792;50.886;6.468;2023-08-17T10:14:52;40.85;;;28.52;;
27305;SDS011;14792;50.886;6.468;2023-08-17T10:21:02;50.78;;;29.10;;
27305;SDS011;14792;50.886;6.468;2023-08-17T10:24:03;46.95;;;29.02;;
27305;SDS011;14792;50.886;6.468;2023-08-17T10:27:05;46.42;;;29.48;;
27305;SDS011;14792;50.886;6.468;2023-08-17T10:30:07;52.43;;;30.10;;
27305;SDS011;14792;50.886;6.468;2023-08-17T10:33:08;46.00;;;26.93;;
27305;SDS011;14792;50.886;6.468;2023-08-17T10:36:10;46.53;;;27.93;;
27305;SDS011;14792;50.886;6.468;2023-08-17T10:39:20;44.05;;;27.75;;
27305;SDS011;14792;50.886;6.468;2023-08-17T10:42:34;43.63;;;27.35;;
27305;SDS011;14792;50.886;6.468;2023-08-17T10:45:35;40.10;;;26.52;;
27305;SDS011;14792;50.886;6.468;2023-08-17T10:48:37;44.18;;;27.77;;
27305;SDS011;14792;50.886;6.468;2023-08-17T10:51:39;43.68;;;27.42;;
27305;SDS011;14792;50.886;6.468;2023-08-17T10:54:41;39.08;;;26.35;;
27305;SDS011;14792;50.886;6.468;2023-08-17T10:57:42;42.10;;;27.07;;
27305;SDS011;14792;50.886;6.468;2023-08-17T11:00:43;46.60;;;31.25;;
27305;SDS011;14792;50.886;6.468;2023-08-17T11:03:45;41.77;;;30.80;;
27305;SDS011;14792;50.886;6.468;2023-08-17T11:06:49;39.35;;;30.00;;
27305;SDS011;14792;50.886;6.468;2023-08-17T11:09:48;39.03;;;29.18;;
27305;SDS011;14792;50.886;6.468;2023-08-17T11:12:52;37.45;;;27.55;;
27305;SDS011;14792;50.886;6.468;2023-08-17T11:15:51;38.30;;;28.32;;
27305;SDS011;14792;50.886;6.468;2023-08-17T11:18:53;37.95;;;29.15;;
27305;SDS011;14792;50.886;6.468;2023-08-17T11:21:55;37.95;;;28.50;;
27305;SDS011;14792;50.886;6.468;2023-08-17T11:24:57;37.53;;;29.15;;
27305;SDS011;14792;50.886;6.468;2023-08-17T11:27:59;35.33;;;29.02;;
27305;SDS011;14792;50.886;6.468;2023-08-17T11:31:00;35.83;;;28.52;;
27305;SDS011;14792;50.886;6.468;2023-08-17T11:34:01;35.88;;;29.07;;
27305;SDS011;14792;50.886;6.468;2023-08-17T11:37:02;34.38;;;27.75;;
27305;SDS011;14792;50.886;6.468;2023-08-17T11:40:04;40.52;;;32.03;;
27305;SDS011;14792;50.886;6.468;2023-08-17T11:43:06;40.03;;;32.55;;
27305;SDS011;14792;50.886;6.468;2023-08-17T11:46:07;43.23;;;31.57;;
27305;SDS011;14792;50.886;6.468;2023-08-17T11:49:09;40.10;;;32.30;;
27305;SDS011;14792;50.886;6.468;2023-08-17T11:52:10;42.03;;;33.30;;
27305;SDS011;14792;50.886;6.468;2023-08-17T11:55:15;42.55;;;33.50;;
27305;SDS011;14792;50.886;6.468;2023-08-17T11:58:14;41.00;;;34.05;;
27305;SDS011;14792;50.886;6.468;2023-08-17T12:01:15;41.05;;;32.55;;
27305;SDS011;14792;50.886;6.468;2023-08-17T12:04:17;37.88;;;31.60;;
27305;SDS011;14792;50.886;6.468;2023-08-17T12:07:19;35.68;;;29.80;;
27305;SDS011;14792;50.886;6.468;2023-08-17T12:10:20;39.95;;;29.92;;
27305;SDS011;14792;50.886;6.468;2023-08-17T12:13:28;41.20;;;30.95;;
27305;SDS011;14792;50.886;6.468;2023-08-17T12:16:23;40.83;;;31.00;;
27305;SDS011;14792;50.886;6.468;2023-08-17T12:19:25;40.40;;;31.73;;
27305;SDS011;14792;50.886;6.468;2023-08-17T12:22:26;42.40;;;31.33;;
27305;SDS011;14792;50.886;6.468;2023-08-17T12:25:28;43.90;;;31.68;;
27305;SDS011;14792;50.886;6.468;2023-08-17T12:28:30;45.45;;;32.05;;
27305;SDS011;14792;50.886;6.468;2023-08-17T12:31:31;42.85;;;31.93;;
27305;SDS011;14792;50.886;6.468;2023-08-17T12:34:33;42.95;;;33.83;;
27305;SDS011;14792;50.886;6.468;2023-08-17T12:37:34;46.42;;;34.00;;
27305;SDS011;14792;50.886;6.468;2023-08-17T12:40:36;44.08;;;31.65;;
27305;SDS011;14792;50.886;6.468;2023-08-17T12:43:38;50.23;;;33.10;;
27305;SDS011;14792;50.886;6.468;2023-08-17T12:46:40;50.10;;;33.98;;
27305;SDS011;14792;50.886;6.468;2023-08-17T12:49:42;47.48;;;33.75;;
27305;SDS011;14792;50.886;6.468;2023-08-17T12:52:43;46.95;;;32.35;;
27305;SDS011;14792;50.886;6.468;2023-08-17T12:55:45;54.50;;;36.53;;
27305;SDS011;14792;50.886;6.468;2023-08-17T12:58:46;49.13;;;34.48;;
27305;SDS011;14792;50.886;6.468;2023-08-17T13:01:48;48.52;;;32.93;;
27305;SDS011;14792;50.886;6.468;2023-08-17T13:04:50;53.23;;;35.60;;
27305;SDS011;14792;50.886;6.468;2023-08-17T13:07:51;58.05;;;37.05;;
27305;SDS011;14792;50.886;6.468;2023-08-17T13:10:53;54.55;;;37.38;;
27305;SDS011;14792;50.886;6.468;2023-08-17T13:13:54;52.73;;;35.40;;
27305;SDS011;14792;50.886;6.468;2023-08-17T13:16:56;51.28;;;33.92;;
27305;SDS011;14792;50.886;6.468;2023-08-17T13:19:58;55.10;;;37.63;;
27305;SDS011;14792;50.886;6.468;2023-08-17T13:22:59;54.10;;;36.20;;
27305;SDS011;14792;50.886;6.468;2023-08-17T13:26:01;52.05;;;34.75;;
27305;SDS011;14792;50.886;6.468;2023-08-17T13:29:02;48.73;;;33.80;;
27305;SDS011;14792;50.886;6.468;2023-08-17T13:32:04;52.13;;;35.38;;
27305;SDS011;14792;50.886;6.468;2023-08-17T13:35:06;48.92;;;32.73;;
27305;SDS011;14792;50.886;6.468;2023-08-17T13:38:07;44.83;;;31.48;;
27305;SDS011;14792;50.886;6.468;2023-08-17T13:41:09;46.50;;;31.60;;
27305;SDS011;14792;50.886;6.468;2023-08-17T13:44:10;41.10;;;30.72;;
27305;SDS011;14792;50.886;6.468;2023-08-17T13:47:12;39.38;;;29.65;;
27305;SDS011;14792;50.886;6.468;2023-08-17T13:50:13;42.98;;;30.02;;
27305;SDS011;14792;50.886;6.468;2023-08-17T13:53:15;38.65;;;27.82;;
27305;SDS011;14792;50.886;6.468;2023-08-17T13:56:17;39.18;;;27.77;;
27305;SDS011;14792;50.886;6.468;2023-08-17T13:59:18;42.80;;;28.15;;
27305;SDS011;14792;50.886;6.468;2023-08-17T14:02:20;34.85;;;26.37;;
27305;SDS011;14792;50.886;6.468;2023-08-17T14:05:21;36.03;;;26.35;;
27305;SDS011;14792;50.886;6.468;2023-08-17T14:08:23;34.60;;;26.60;;
27305;SDS011;14792;50.886;6.468;2023-08-17T14:11:25;30.82;;;23.77;;
27305;SDS011;14792;50.886;6.468;2023-08-17T14:14:26;35.60;;;25.23;;
27305;SDS011;14792;50.886;6.468;2023-08-17T14:17:28;34.85;;;25.40;;
27305;SDS011;14792;50.886;6.468;2023-08-17T14:20:29;32.90;;;24.20;;
27305;SDS011;14792;50.886;6.468;2023-08-17T14:23:31;34.05;;;23.22;;
27305;SDS011;14792;50.886;6.468;2023-08-17T14:26:33;31.10;;;22.90;;
27305;SDS011;14792;50.886;6.468;2023-08-17T14:29:34;36.83;;;26.33;;
27305;SDS011;14792;50.886;6.468;2023-08-17T14:32:36;31.17;;;23.22;;
27305;SDS011;14792;50.886;6.468;2023-08-17T14:35:37;29.27;;;22.17;;
27305;SDS011;14792;50.886;6.468;2023-08-17T14:38:40;34.53;;;25.27;;
27305;SDS011;14792;50.886;6.468;2023-08-17T14:41:41;32.65;;;23.52;;
27305;SDS011;14792;50.886;6.468;2023-08-17T14:44:43;38.65;;;26.65;;
27305;SDS011;14792;50.886;6.468;2023-08-17T14:47:45;34.95;;;26.62;;
27305;SDS011;14792;50.886;6.468;2023-08-17T14:50:46;35.30;;;25.27;;
27305;SDS011;14792;50.886;6.468;2023-08-17T14:53:48;32.58;;;23.38;;
27305;SDS011;14792;50.886;6.468;2023-08-17T14:56:49;38.10;;;28.87;;
27305;SDS011;14792;50.886;6.468;2023-08-17T14:59:51;43.85;;;27.85;;
27305;SDS011;14792;50.886;6.468;2023-08-17T15:02:56;38.60;;;25.68;;
27305;SDS011;14792;50.886;6.468;2023-08-17T15:05:57;39.13;;;26.10;;
27305;SDS011;14792;50.886;6.468;2023-08-17T15:08:58;40.10;;;29.48;;
27305;SDS011;14792;50.886;6.468;2023-08-17T15:12:00;40.48;;;28.02;;
27305;SDS011;14792;50.886;6.468;2023-08-17T15:15:02;37.53;;;28.02;;
27305;SDS011;14792;50.886;6.468;2023-08-17T15:18:03;40.15;;;27.82;;
27305;SDS011;14792;50.886;6.468;2023-08-17T15:21:05;39.60;;;29.05;;
27305;SDS011;14792;50.886;6.468;2023-08-17T15:24:06;42.25;;;29.95;;
27305;SDS011;14792;50.886;6.468;2023-08-17T15:27:09;38.65;;;27.50;;
27305;SDS011;14792;50.886;6.468;2023-08-17T15:30:10;34.50;;;26.35;;
27305;SDS011;14792;50.886;6.468;2023-08-17T15:33:12;34.55;;;25.82;;
27305;SDS011;14792;50.886;6.468;2023-08-17T15:36:13;33.83;;;26.15;;
27305;SDS011;14792;50.886;6.468;2023-08-17T15:39:15;39.98;;;27.20;;
27305;SDS011;14792;50.886;6.468;2023-08-17T15:42:16;38.78;;;26.73;;
27305;SDS011;14792;50.886;6.468;2023-08-17T15:45:18;34.23;;;23.80;;
27305;SDS011;14792;50.886;6.468;2023-08-17T15:48:20;31.15;;;23.05;;
27305;SDS011;14792;50.886;6.468;2023-08-17T15:51:21;31.62;;;24.15;;
27305;SDS011;14792;50.886;6.468;2023-08-17T15:54:23;28.70;;;20.70;;
27305;SDS011;14792;50.886;6.468;2023-08-17T15:57:24;29.70;;;22.17;;
27305;SDS011;14792;50.886;6.468;2023-08-17T16:00:26;29.52;;;23.50;;
27305;SDS011;14792;50.886;6.468;2023-08-17T16:03:28;32.73;;;24.65;;
27305;SDS011;14792;50.886;6.468;2023-08-17T16:06:29;27.42;;;21.73;;
27305;SDS011;14792;50.886;6.468;2023-08-17T16:09:31;34.43;;;24.18;;
27305;SDS011;14792;50.886;6.468;2023-08-17T16:12:32;30.25;;;23.57;;
27305;SDS011;14792;50.886;6.468;2023-08-17T16:15:34;25.27;;;21.97;;
27305;SDS011;14792;50.886;6.468;2023-08-17T16:18:36;31.70;;;23.40;;
27305;SDS011;14792;50.886;6.468;2023-08-17T16:21:37;36.03;;;22.50;;
27305;SDS011;14792;50.886;6.468;2023-08-17T16:24:40;28.77;;;21.70;;
27305;SDS011;14792;50.886;6.468;2023-08-17T16:27:42;26.23;;;21.87;;
27305;SDS011;14792;50.886;6.468;2023-08-17T16:30:43;27.60;;;20.25;;
27305;SDS011;14792;50.886;6.468;2023-08-17T16:33:45;25.80;;;20.92;;
27305;SDS011;14792;50.886;6.468;2023-08-17T16:36:46;27.77;;;20.57;;
27305;SDS011;14792;50.886;6.468;2023-08-17T16:39:48;29.90;;;23.18;;
27305;SDS011;14792;50.886;6.468;2023-08-17T16:42:50;25.50;;;20.95;;
27305;SDS011;14792;50.886;6.468;2023-08-17T16:45:51;23.55;;;20.70;;
27305;SDS011;14792;50.886;6.468;2023-08-17T16:48:53;27.25;;;22.27;;
27305;SDS011;14792;50.886;6.468;2023-08-17T16:51:54;29.82;;;22.60;;
27305;SDS011;14792;50.886;6.468;2023-08-17T16:54:56;27.75;;;22.85;;
27305;SDS011;14792;50.886;6.468;2023-08-17T16:57:57;29.60;;;23.62;;
27305;SDS011;14792;50.886;6.468;2023-08-17T17:01:00;28.47;;;24.05;;
27305;SDS011;14792;50.886;6.468;2023-08-17T17:04:01;42.25;;;27.80;;
27305;SDS011;14792;50.886;6.468;2023-08-17T17:07:02;34.27;;;26.42;;
27305;SDS011;14792;50.886;6.468;2023-08-17T17:10:04;34.58;;;25.32;;
27305;SDS011;14792;50.886;6.468;2023-08-17T17:13:05;33.83;;;26.65;;
27305;SDS011;14792;50.886;6.468;2023-08-17T17:16:07;34.35;;;25.57;;
27305;SDS011;14792;50.886;6.468;2023-08-17T17:19:09;30.05;;;23.90;;
27305;SDS011;14792;50.886;6.468;2023-08-17T17:22:11;29.98;;;24.12;;
27305;SDS011;14792;50.886;6.468;2023-08-17T17:25:12;28.27;;;23.12;;
27305;SDS011;14792;50.886;6.468;2023-08-17T17:28:14;33.63;;;24.00;;
27305;SDS011;14792;50.886;6.468;2023-08-17T17:31:16;27.48;;;22.77;;
27305;SDS011;14792;50.886;6.468;2023-08-17T17:34:18;30.17;;;24.02;;
27305;SDS011;14792;50.886;6.468;2023-08-17T17:37:19;28.65;;;23.02;;
27305;SDS011;14792;50.886;6.468;2023-08-17T17:40:20;28.17;;;21.95;;
27305;SDS011;14792;50.886;6.468;2023-08-17T17:43:22;31.87;;;22.27;;
27305;SDS011;14792;50.886;6.468;2023-08-17T17:46:24;26.95;;;20.75;;
27305;SDS011;14792;50.886;6.468;2023-08-17T17:49:25;25.72;;;20.95;;
27305;SDS011;14792;50.886;6.468;2023-08-17T17:52:27;24.25;;;20.17;;